Time;durP1;ratioP1;P1;durP2;ratioP2;P2;SDS_P1;SDS_P2;PMS_P1;PMS_P2;Temp;Humidity;BMP_temperature;BMP_pressure;BME280_temperature;BME280_humidity;BME280_pressure;Samples;Min_cycle;Max_cycle;Signal;HPM_P1;HPM_P2
2020/12/05 00:01:37;;;;;;;9.67;7.47;;;6.00;82.70;;;;;;5034485;28;20451;-73
2020/12/05 00:04:03;;;;;;;10.10;7.63;;;6.00;82.90;;;;;;5034396;28;20434;-73
2020/12/05 00:06:30;;;;;;;14.47;8.57;;;6.10;83.20;;;;;;5033997;28;20976;-73
2020/12/05 00:08:56;;;;;;;11.60;7.87;;;6.10;83.40;;;;;;5034375;28;20426;-73
2020/12/05 00:11:26;;;;;;;15.33;7.77;;;6.00;83.40;;;;;;5034161;28;20446;-73
2020/12/05 00:13:52;;;;;;;11.63;8.80;;;6.00;83.40;;;;;;5033721;28;20438;-73
2020/12/05 00:16:18;;;;;;;8.73;7.87;;;6.00;83.40;;;;;;5034053;28;20458;-73
2020/12/05 00:18:45;;;;;;;11.33;7.53;;;6.00;83.30;;;;;;5034040;28;20479;-73
2020/12/05 00:21:11;;;;;;;12.57;8.33;;;6.00;83.30;;;;;;5033833;28;20948;-73
2020/12/05 00:23:37;;;;;;;9.73;7.23;;;6.00;83.30;;;;;;5034197;28;20427;-73
2020/12/05 00:26:03;;;;;;;10.30;8.37;;;6.00;83.30;;;;;;5033658;28;20483;-73
2020/12/05 00:28:30;;;;;;;9.37;6.73;;;6.00;83.30;;;;;;5033996;28;20423;-73
2020/12/05 00:30:56;;;;;;;8.47;7.37;;;5.90;83.70;;;;;;5033967;28;20446;-73
2020/12/05 00:33:22;;;;;;;10.20;7.67;;;5.90;82.90;;;;;;5034142;28;20442;-73
2020/12/05 00:35:49;;;;;;;7.73;6.13;;;5.90;83.00;;;;;;5033713;28;20478;-73
2020/12/05 00:38:15;;;;;;;9.77;6.60;;;5.90;83.20;;;;;;5033699;28;20490;-73
2020/12/05 00:40:41;;;;;;;7.73;6.43;;;5.90;83.20;;;;;;5033470;28;20443;-73
2020/12/05 00:43:09;;;;;;;8.17;5.50;;;5.90;83.40;;;;;;5033730;28;20442;-73
2020/12/05 00:45:36;;;;;;;6.30;5.70;;;5.90;83.10;;;;;;5033719;28;20466;-73
2020/12/05 00:48:02;;;;;;;9.77;5.43;;;5.80;82.70;;;;;;5034347;28;20425;-73
2020/12/05 00:50:29;;;;;;;9.67;6.00;;;5.80;82.50;;;;;;5034337;28;20442;-73
2020/12/05 00:52:55;;;;;;;7.10;6.20;;;5.70;82.30;;;;;;5033667;28;20940;-73
2020/12/05 00:55:21;;;;;;;8.27;5.83;;;5.70;82.60;;;;;;5033709;28;20465;-73
2020/12/05 00:57:47;;;;;;;6.43;5.40;;;5.70;82.90;;;;;;5033629;28;20503;-76
2020/12/05 01:00:15;;;;;;;6.90;5.30;;;5.60;83.20;;;;;;5033738;28;20438;-73
2020/12/05 01:02:42;;;;;;;8.93;6.97;;;5.60;83.20;;;;;;5033763;28;20442;-73
2020/12/05 01:05:09;;;;;;;7.80;6.33;;;5.60;83.60;;;;;;5033629;28;20431;-73
2020/12/05 01:07:35;;;;;;;9.10;7.17;;;5.60;83.70;;;;;;5033563;28;20446;-73
2020/12/05 01:10:01;;;;;;;8.57;6.50;;;5.60;83.70;;;;;;5033489;28;20500;-73
2020/12/05 01:12:27;;;;;;;7.97;7.17;;;5.60;83.90;;;;;;5033100;28;20442;-73
2020/12/05 01:14:53;;;;;;;7.97;6.40;;;5.60;83.90;;;;;;5033400;28;20496;-73
2020/12/05 01:17:24;;;;;;;6.93;5.40;;;5.60;84.00;;;;;;5032934;28;20466;-73
2020/12/05 01:19:52;;;;;;;7.97;6.30;;;5.60;83.90;;;;;;5033446;28;20445;-73
2020/12/05 01:22:19;;;;;;;6.23;5.20;;;5.50;83.60;;;;;;5033346;28;20485;-73
2020/12/05 01:24:45;;;;;;;6.63;5.93;;;5.50;83.60;;;;;;5035063;28;20449;-73
2020/12/05 01:27:12;;;;;;;6.67;6.00;;;5.40;83.10;;;;;;5037318;28;20492;-73
2020/12/05 01:29:38;;;;;;;6.60;5.77;;;5.40;83.00;;;;;;5037003;28;20446;-73
2020/12/05 01:32:04;;;;;;;6.27;5.43;;;5.40;83.40;;;;;;5037295;28;20446;-73
2020/12/05 01:34:30;;;;;;;8.00;5.70;;;5.40;83.80;;;;;;5037208;28;20441;-73
2020/12/05 01:36:57;;;;;;;8.27;5.73;;;5.40;84.00;;;;;;5036756;28;20485;-73
2020/12/05 01:39:23;;;;;;;9.10;6.53;;;5.40;83.90;;;;;;5037118;28;20462;-73
2020/12/05 01:41:51;;;;;;;8.40;6.10;;;5.40;84.20;;;;;;5037063;28;20496;-73
2020/12/05 01:44:17;;;;;;;7.50;5.73;;;5.40;84.50;;;;;;5037069;28;20443;-73
2020/12/05 01:46:47;;;;;;;6.20;5.33;;;5.40;84.40;;;;;;5036938;28;20465;-73
2020/12/05 01:49:16;;;;;;;6.13;5.63;;;5.40;84.30;;;;;;5036989;28;20442;-73
2020/12/05 01:51:43;;;;;;;6.43;5.83;;;5.40;84.30;;;;;;5036902;28;20446;-73
2020/12/05 01:54:11;;;;;;;6.80;5.80;;;5.30;83.90;;;;;;5036624;28;20499;-73
2020/12/05 01:56:38;;;;;;;6.53;5.60;;;5.30;83.80;;;;;;5036760;28;20549;-73
2020/12/05 01:59:04;;;;;;;6.97;5.70;;;5.30;83.90;;;;;;5036688;28;20514;-73
2020/12/05 02:01:32;;;;;;;7.60;6.17;;;5.30;84.00;;;;;;5036539;28;20453;-73
2020/12/05 02:04:01;;;;;;;8.13;5.70;;;5.20;83.80;;;;;;5036477;28;20940;-73
2020/12/05 02:06:39;;;;;;;7.50;4.90;;;5.20;83.80;;;;;;5036290;28;20493;-73
2020/12/05 02:09:14;;;;;;;7.83;6.13;;;5.20;83.90;;;;;;5036619;28;20426;-73
2020/12/05 02:11:46;;;;;;;7.30;6.50;;;5.20;83.70;;;;;;5036610;28;20429;-73
2020/12/05 02:14:16;;;;;;;6.00;5.50;;;5.20;83.50;;;;;;5036261;28;20901;-73
2020/12/05 02:16:43;;;;;;;6.20;5.60;;;5.20;83.80;;;;;;5036331;28;20466;-73
2020/12/05 02:19:17;;;;;;;7.87;5.90;;;5.10;84.20;;;;;;5036393;28;20473;-72
2020/12/05 02:21:46;;;;;;;8.63;5.90;;;5.10;84.40;;;;;;5036367;28;20811;-72
2020/12/05 02:24:16;;;;;;;7.00;6.30;;;5.10;84.70;;;;;;5036300;28;20492;-72
2020/12/05 02:26:43;;;;;;;6.10;5.50;;;5.10;84.70;;;;;;5036250;28;20465;-72
2020/12/05 02:29:10;;;;;;;6.20;5.60;;;5.10;84.80;;;;;;5035944;28;20920;-72
2020/12/05 02:31:37;;;;;;;7.40;6.00;;;5.10;84.90;;;;;;5036166;28;20461;-72
2020/12/05 02:34:03;;;;;;;7.90;6.60;;;5.10;85.00;;;;;;5035822;28;20787;-72
2020/12/05 02:36:34;;;;;;;7.40;6.17;;;5.10;85.00;;;;;;5035123;28;20880;-73
2020/12/05 02:39:08;;;;;;;8.10;6.37;;;5.10;85.00;;;;;;5035979;28;20525;-73
2020/12/05 02:41:38;;;;;;;7.00;6.23;;;5.10;85.00;;;;;;5036035;28;20426;-73
2020/12/05 02:44:04;;;;;;;9.23;6.70;;;5.10;85.00;;;;;;5035958;28;20816;-73
2020/12/05 02:46:31;;;;;;;9.63;5.97;;;5.10;85.20;;;;;;5035872;28;20536;-73
2020/12/05 02:48:57;;;;;;;7.03;6.33;;;5.10;85.40;;;;;;5035918;28;20442;-73
2020/12/05 02:51:23;;;;;;;7.53;6.17;;;5.10;85.70;;;;;;5035839;28;20449;-73
2020/12/05 02:53:49;;;;;;;8.57;7.17;;;5.10;85.30;;;;;;5035800;28;20438;-73
2020/12/05 02:56:16;;;;;;;10.77;7.17;;;5.10;85.50;;;;;;5035647;28;20465;-73
2020/12/05 02:58:44;;;;;;;7.60;6.80;;;5.10;86.10;;;;;;5035426;28;20520;-73
2020/12/05 03:01:10;;;;;;;10.03;7.67;;;5.10;86.70;;;;;;5035626;28;20446;-73
2020/12/05 03:03:36;;;;;;;8.10;7.00;;;5.20;87.00;;;;;;5035602;28;20453;-73
2020/12/05 03:06:03;;;;;;;8.67;7.20;;;5.20;87.10;;;;;;5035558;28;20532;-73
2020/12/05 03:08:29;;;;;;;8.30;6.93;;;5.20;87.30;;;;;;5035478;28;20486;-73
2020/12/05 03:10:55;;;;;;;10.87;8.00;;;5.30;87.50;;;;;;5035460;28;20442;-73
2020/12/05 03:13:21;;;;;;;11.43;8.37;;;5.20;87.50;;;;;;5035133;28;20443;-73
2020/12/05 03:15:48;;;;;;;10.57;8.20;;;5.30;87.90;;;;;;5035286;28;20486;-73
2020/12/05 03:18:14;;;;;;;8.77;7.77;;;5.30;88.10;;;;;;5035247;28;20474;-73
2020/12/05 03:20:41;;;;;;;10.80;7.33;;;5.30;88.30;;;;;;5035257;28;20852;-73
2020/12/05 03:23:07;;;;;;;7.57;6.83;;;5.30;88.30;;;;;;5035288;28;20465;-73
2020/12/05 03:25:33;;;;;;;10.47;8.17;;;5.40;88.40;;;;;;5035055;28;20462;-73
2020/12/05 03:27:59;;;;;;;10.63;7.63;;;5.40;88.40;;;;;;5035075;28;20435;-73
2020/12/05 03:30:25;;;;;;;7.90;6.83;;;5.40;88.30;;;;;;5034851;28;20912;-73
2020/12/05 03:32:52;;;;;;;9.63;7.10;;;5.40;88.20;;;;;;5035587;28;20443;-73
2020/12/05 03:35:19;;;;;;;9.30;7.70;;;5.40;88.30;;;;;;5034748;28;20454;-73
2020/12/05 03:37:45;;;;;;;12.03;8.87;;;5.40;88.30;;;;;;5034891;28;20430;-73
2020/12/05 03:40:11;;;;;;;13.23;8.80;;;5.40;88.40;;;;;;5034922;28;20442;-73
2020/12/05 03:42:38;;;;;;;12.50;10.03;;;5.40;88.50;;;;;;5034858;28;20447;-73
2020/12/05 03:45:04;;;;;;;11.10;9.90;;;5.30;88.80;;;;;;5034806;28;20474;-73
2020/12/05 03:47:30;;;;;;;11.53;9.53;;;5.30;89.10;;;;;;5034144;28;20470;-73
2020/12/05 03:49:57;;;;;;;12.43;10.40;;;5.20;89.40;;;;;;5035830;28;20492;-72
2020/12/05 03:52:24;;;;;;;12.00;8.80;;;5.20;89.70;;;;;;5034903;28;20465;-72
2020/12/05 03:54:50;;;;;;;10.90;8.93;;;5.20;89.90;;;;;;5034731;28;20517;-72
2020/12/05 03:57:16;;;;;;;14.87;8.80;;;5.20;90.00;;;;;;5034604;28;20469;-73
2020/12/05 03:59:42;;;;;;;19.77;11.17;;;5.20;90.00;;;;;;5034624;28;20485;-73
2020/12/05 04:02:08;;;;;;;15.13;10.37;;;5.20;90.10;;;;;;5034344;28;20446;-73
2020/12/05 04:04:34;;;;;;;13.33;8.90;;;5.20;90.30;;;;;;5034486;28;20442;-73
2020/12/05 04:07:01;;;;;;;12.30;9.10;;;5.20;90.30;;;;;;5034392;28;20463;-73
2020/12/05 04:09:28;;;;;;;13.43;8.70;;;5.10;90.30;;;;;;5034361;28;20838;-73
2020/12/05 04:11:54;;;;;;;14.90;8.70;;;5.10;90.30;;;;;;5034289;28;20450;-73
2020/12/05 04:14:20;;;;;;;18.57;13.07;;;5.10;90.30;;;;;;5034268;28;20438;-73
2020/12/05 04:16:46;;;;;;;14.03;10.90;;;5.10;90.30;;;;;;5034167;28;20473;-73
2020/12/05 04:19:12;;;;;;;11.40;9.93;;;5.10;90.30;;;;;;5034139;28;20477;-73
2020/12/05 04:21:39;;;;;;;13.00;9.73;;;5.10;90.30;;;;;;5034158;28;20446;-73
2020/12/05 04:24:06;;;;;;;13.90;9.13;;;5.10;90.40;;;;;;5034092;28;20445;-73
2020/12/05 04:26:32;;;;;;;16.10;9.37;;;5.20;90.50;;;;;;5034046;28;20819;-73
2020/12/05 04:28:58;;;;;;;12.10;8.50;;;5.20;90.60;;;;;;5034014;28;20438;-73
2020/12/05 04:31:24;;;;;;;14.07;8.73;;;5.20;90.50;;;;;;5033706;28;20982;-73
2020/12/05 04:33:50;;;;;;;16.50;9.90;;;5.20;90.50;;;;;;5033852;28;20453;-73
2020/12/05 04:36:17;;;;;;;10.20;8.73;;;5.20;90.40;;;;;;5033364;28;20477;-73
2020/12/05 04:38:43;;;;;;;16.27;8.73;;;5.20;90.40;;;;;;5033898;28;20481;-73
2020/12/05 04:41:10;;;;;;;15.20;8.73;;;5.20;90.30;;;;;;5033880;28;20445;-73
2020/12/05 04:43:36;;;;;;;17.83;8.87;;;5.30;90.20;;;;;;5034583;28;20446;-73
2020/12/05 04:46:03;;;;;;;10.77;8.03;;;5.20;90.10;;;;;;5033689;28;20520;-73
2020/12/05 04:48:31;;;;;;;10.03;7.30;;;5.20;90.00;;;;;;5033428;28;20956;-73
2020/12/05 04:51:01;;;;;;;9.83;8.83;;;5.20;90.00;;;;;;5033676;28;20442;-73
2020/12/05 04:53:28;;;;;;;11.67;7.17;;;5.30;90.10;;;;;;5034674;28;20467;-73
2020/12/05 04:55:58;;;;;;;10.80;7.83;;;5.30;90.20;;;;;;5033564;28;20498;-73
2020/12/05 04:58:26;;;;;;;10.50;8.17;;;5.30;90.30;;;;;;5033192;28;20983;-73
2020/12/05 05:00:54;;;;;;;10.50;7.40;;;5.30;90.40;;;;;;5033564;28;20445;-73
2020/12/05 05:03:22;;;;;;;9.10;7.13;;;5.30;90.50;;;;;;5033594;28;20449;-73
2020/12/05 05:05:49;;;;;;;13.23;8.27;;;5.30;90.60;;;;;;5033416;28;20466;-73
2020/12/05 05:08:15;;;;;;;8.60;6.30;;;5.20;90.70;;;;;;5033211;28;20937;-73
2020/12/05 05:10:42;;;;;;;7.50;6.70;;;5.20;90.80;;;;;;5033470;28;20438;-73
2020/12/05 05:13:14;;;;;;;11.20;7.30;;;5.20;90.90;;;;;;5033111;28;20492;-73
2020/12/05 05:15:42;;;;;;;9.67;6.73;;;5.30;91.00;;;;;;5033421;28;20478;-73
2020/12/05 05:18:08;;;;;;;8.10;6.10;;;5.20;90.90;;;;;;5033868;28;20446;-73
2020/12/05 05:20:38;;;;;;;7.90;7.20;;;5.20;90.90;;;;;;5033347;28;20446;-73
2020/12/05 05:23:09;;;;;;;7.97;7.17;;;5.20;91.00;;;;;;5033022;28;20439;-73
2020/12/05 05:25:49;;;;;;;9.77;7.40;;;5.20;90.90;;;;;;5033546;28;20516;-73
2020/12/05 05:28:18;;;;;;;9.70;7.50;;;5.20;90.80;;;;;;5032939;28;20928;-73
2020/12/05 05:31:00;;;;;;;7.80;6.60;;;5.20;90.80;;;;;;5033294;28;20443;-73
2020/12/05 05:33:26;;;;;;;8.10;7.30;;;5.20;90.90;;;;;;5033350;28;20427;-73
2020/12/05 05:35:53;;;;;;;9.00;7.07;;;5.20;90.90;;;;;;5032884;28;20891;-73
2020/12/05 05:38:21;;;;;;;9.27;6.93;;;5.20;90.90;;;;;;5033203;28;20478;-73
2020/12/05 05:40:47;;;;;;;12.03;9.20;;;5.20;90.90;;;;;;5033226;28;20446;-73
2020/12/05 05:43:19;;;;;;;9.63;7.77;;;5.20;90.90;;;;;;5033119;28;20449;-73
2020/12/05 05:45:46;;;;;;;9.03;7.70;;;5.10;90.90;;;;;;5032738;28;20976;-73
2020/12/05 05:48:14;;;;;;;8.27;7.40;;;5.10;90.90;;;;;;5033149;28;20443;-73
2020/12/05 05:50:40;;;;;;;7.67;6.93;;;5.10;90.70;;;;;;5034207;28;20430;-73
2020/12/05 05:53:08;;;;;;;10.00;7.97;;;5.00;90.50;;;;;;5033271;28;20457;-73
2020/12/05 05:55:43;;;;;;;9.33;8.27;;;5.00;90.40;;;;;;5033251;28;20465;-74
2020/12/05 05:58:10;;;;;;;10.60;7.43;;;5.00;90.30;;;;;;5032977;28;20420;-73
2020/12/05 06:00:39;;;;;;;7.77;6.20;;;5.00;90.20;;;;;;5033309;28;20434;-73
2020/12/05 06:03:18;;;;;;;8.47;6.70;;;5.00;90.00;;;;;;5033187;28;20439;-73
2020/12/05 06:05:46;;;;;;;13.40;7.70;;;5.00;89.70;;;;;;5033262;28;20465;-73
2020/12/05 06:08:20;;;;;;;7.73;6.93;;;5.00;89.30;;;;;;5033014;28;20445;-73
2020/12/05 06:10:57;;;;;;;8.43;6.43;;;5.00;89.00;;;;;;5035140;28;20426;-73
2020/12/05 06:13:26;;;;;;;7.43;6.73;;;5.00;88.60;;;;;;5036500;28;20527;-73
2020/12/05 06:15:53;;;;;;;16.70;6.60;;;4.90;88.20;;;;;;5036725;28;20542;-74
2020/12/05 06:18:21;;;;;;;8.50;6.63;;;4.90;88.00;;;;;;5036344;28;20486;-73
2020/12/05 06:20:48;;;;;;;12.63;6.17;;;4.90;88.00;;;;;;5036452;28;20442;-73
2020/12/05 06:23:23;;;;;;;9.20;6.77;;;4.90;87.80;;;;;;5036374;28;20446;-73
2020/12/05 06:25:52;;;;;;;8.30;7.10;;;4.90;87.90;;;;;;5035970;28;20540;-73
2020/12/05 06:28:20;;;;;;;8.90;8.00;;;4.90;88.00;;;;;;5035970;28;20493;-73
2020/12/05 06:30:46;;;;;;;10.97;7.07;;;4.90;88.10;;;;;;5036026;28;20962;-73
2020/12/05 06:33:36;;;;;;;8.60;7.30;;;4.90;88.20;;;;;;5036248;28;20442;-73
2020/12/05 06:36:23;;;;;;;14.30;7.40;;;4.90;88.20;;;;;;5035843;28;20478;-74
2020/12/05 06:39:08;;;;;;;16.67;7.00;;;4.90;88.10;;;;;;5035659;28;20516;-74
2020/12/05 06:41:36;;;;;;;7.70;6.27;;;4.90;88.50;;;;;;5036001;28;20445;-74
2020/12/05 06:44:08;;;;;;;14.43;7.00;;;4.90;89.40;;;;;;5035686;28;20932;-74
2020/12/05 06:46:46;;;;;;;8.57;6.43;;;4.90;90.10;;;;;;5035820;28;20463;-74
2020/12/05 06:49:44;;;;;;;8.63;7.13;;;4.80;90.30;;;;;;5035573;28;20760;-74
2020/12/05 06:52:38;;;;;;;9.53;6.53;;;4.80;90.50;;;;;;5035619;28;20425;-74
2020/12/05 06:55:09;;;;;;;7.83;7.03;;;4.80;90.80;;;;;;5035846;28;20445;-74
2020/12/05 06:57:37;;;;;;;8.10;7.27;;;4.80;91.00;;;;;;5035439;28;20893;-74
2020/12/05 07:00:22;;;;;;;7.50;6.70;;;4.80;91.10;;;;;;5035629;28;20486;-74
2020/12/05 07:02:56;;;;;;;7.63;6.93;;;4.80;91.30;;;;;;5035693;28;20447;-74
2020/12/05 07:05:34;;;;;;;8.13;6.83;;;4.80;91.40;;;;;;5035562;28;20427;-74
2020/12/05 07:08:02;;;;;;;8.40;7.17;;;4.80;91.40;;;;;;5036411;28;20426;-74
2020/12/05 07:10:52;;;;;;;10.20;7.53;;;4.80;91.50;;;;;;5033199;28;22029;-74
2020/12/05 07:13:20;;;;;;;8.27;7.47;;;4.80;91.60;;;;;;5018969;28;20529;-75
2020/12/05 07:15:47;;;;;;;10.63;7.60;;;4.80;91.80;;;;;;5015539;28;20463;-74
2020/12/05 07:18:28;;;;;;;9.80;7.20;;;4.80;91.80;;;;;;5015503;28;20451;-74
2020/12/05 07:20:56;;;;;;;8.50;6.17;;;4.90;91.90;;;;;;5013206;28;20465;-74
2020/12/05 07:23:23;;;;;;;7.60;6.40;;;4.90;92.00;;;;;;5014615;28;20429;-74
2020/12/05 07:25:49;;;;;;;9.20;7.60;;;5.00;92.00;;;;;;5015332;28;20474;-74
2020/12/05 07:28:17;;;;;;;9.47;6.40;;;5.00;91.90;;;;;;5015428;28;20566;-74
2020/12/05 07:30:43;;;;;;;8.87;6.90;;;5.00;91.90;;;;;;5015718;28;20822;-75
2020/12/05 07:33:10;;;;;;;13.70;8.03;;;5.00;91.80;;;;;;5035121;28;20446;-75
2020/12/05 07:35:36;;;;;;;7.40;6.57;;;5.00;91.70;;;;;;5034847;28;20469;-74
2020/12/05 07:38:11;;;;;;;13.17;7.10;;;5.10;91.70;;;;;;5034983;28;20520;-74
2020/12/05 07:40:38;;;;;;;8.90;6.17;;;5.10;92.00;;;;;;5034593;28;20451;-74
2020/12/05 07:43:04;;;;;;;9.90;6.27;;;5.10;91.60;;;;;;5035419;28;20434;-74
2020/12/05 07:45:30;;;;;;;8.90;6.50;;;5.10;91.60;;;;;;5034830;28;20446;-75
2020/12/05 07:47:56;;;;;;;9.47;6.90;;;5.10;91.60;;;;;;5034931;28;20470;-74
2020/12/05 07:50:31;;;;;;;7.10;6.07;;;5.10;91.60;;;;;;5034474;28;20925;-74
2020/12/05 07:52:57;;;;;;;9.03;6.83;;;5.10;91.60;;;;;;5034677;28;20422;-74
2020/12/05 07:55:29;;;;;;;8.30;6.43;;;5.20;91.60;;;;;;5034598;28;20490;-74
2020/12/05 07:57:55;;;;;;;8.63;6.83;;;5.10;91.50;;;;;;5034613;28;20453;-74
2020/12/05 08:00:22;;;;;;;7.67;6.93;;;5.10;91.50;;;;;;5034485;28;20497;-75
2020/12/05 08:03:02;;;;;;;7.30;6.60;;;5.10;91.50;;;;;;5034514;28;20426;-75
2020/12/05 08:05:42;;;;;;;5.67;5.10;;;5.10;91.40;;;;;;5034121;28;20908;-74
2020/12/05 08:08:10;;;;;;;8.10;6.20;;;5.20;91.40;;;;;;5034443;28;20492;-75
2020/12/05 08:10:37;;;;;;;8.10;6.97;;;5.20;91.30;;;;;;5034302;28;20461;-74
2020/12/05 08:13:24;;;;;;;7.97;6.40;;;5.20;91.20;;;;;;5034465;28;20435;-74
2020/12/05 08:16:01;;;;;;;7.10;6.33;;;5.20;91.20;;;;;;5034212;28;20473;-74
2020/12/05 08:18:27;;;;;;;7.33;6.63;;;5.20;91.10;;;;;;5034195;28;20466;-74
2020/12/05 08:20:54;;;;;;;7.57;6.77;;;5.20;91.00;;;;;;5034217;28;20434;-74
2020/12/05 08:23:25;;;;;;;9.43;5.93;;;5.20;91.00;;;;;;5033887;28;20994;-74
2020/12/05 08:25:55;;;;;;;8.30;7.40;;;5.20;91.00;;;;;;5034021;28;20539;-74
2020/12/05 08:28:22;;;;;;;7.37;6.40;;;5.30;91.00;;;;;;5034095;28;20429;-74
2020/12/05 08:30:49;;;;;;;8.47;6.50;;;5.30;90.90;;;;;;5033668;28;20939;-74
2020/12/05 08:33:16;;;;;;;9.13;6.40;;;5.30;90.80;;;;;;5033564;28;20446;-74
2020/12/05 08:35:43;;;;;;;8.37;6.97;;;5.30;90.80;;;;;;5033636;28;20488;-74
2020/12/05 08:38:13;;;;;;;7.73;5.80;;;5.30;90.80;;;;;;5033868;28;20438;-74
2020/12/05 08:40:39;;;;;;;8.10;6.73;;;5.30;90.90;;;;;;5033876;28;20873;-74
2020/12/05 08:43:06;;;;;;;9.30;7.73;;;5.30;91.00;;;;;;5033875;28;20447;-74
2020/12/05 08:45:38;;;;;;;10.53;7.20;;;5.40;91.00;;;;;;5033722;28;20458;-74
2020/12/05 08:48:15;;;;;;;9.73;7.00;;;5.40;91.10;;;;;;5033822;28;20920;-74
2020/12/05 08:50:42;;;;;;;12.03;7.40;;;5.40;91.10;;;;;;5033828;28;20454;-74
2020/12/05 08:53:08;;;;;;;8.10;7.33;;;5.40;91.20;;;;;;5033728;28;20450;-74
2020/12/05 08:55:34;;;;;;;7.70;6.63;;;5.40;91.20;;;;;;5033332;28;20852;-74
2020/12/05 08:58:02;;;;;;;8.47;6.53;;;5.50;91.20;;;;;;5033882;28;20442;-74
2020/12/05 09:00:31;;;;;;;8.53;6.70;;;5.50;91.20;;;;;;5033580;28;20474;-74
2020/12/05 09:02:57;;;;;;;11.07;7.20;;;5.50;91.10;;;;;;5033591;28;20512;-74
2020/12/05 09:05:23;;;;;;;11.87;7.50;;;5.50;91.10;;;;;;5033571;28;20442;-74
2020/12/05 09:07:54;;;;;;;9.17;8.13;;;5.50;91.00;;;;;;5033498;28;20496;-74
2020/12/05 09:10:20;;;;;;;8.83;7.47;;;5.60;91.10;;;;;;5033224;28;20426;-74
2020/12/05 09:12:47;;;;;;;9.37;6.67;;;5.60;91.10;;;;;;5033408;28;20439;-74
2020/12/05 09:15:13;;;;;;;8.57;6.93;;;5.70;91.10;;;;;;5033374;28;20799;-74
2020/12/05 09:17:41;;;;;;;7.83;6.97;;;5.70;91.00;;;;;;5034387;28;20810;-74
2020/12/05 09:20:15;;;;;;;7.73;6.93;;;5.80;90.90;;;;;;5033419;28;20470;-74
2020/12/05 09:22:49;;;;;;;7.63;6.63;;;5.90;90.80;;;;;;5033376;28;20449;-75
2020/12/05 09:25:27;;;;;;;12.17;6.07;;;6.00;90.70;;;;;;5033305;28;20450;-75
2020/12/05 09:27:55;;;;;;;10.80;6.83;;;6.10;90.60;;;;;;5033221;28;20940;-75
2020/12/05 09:30:23;;;;;;;8.13;5.33;;;6.20;90.50;;;;;;5033402;28;20423;-75
2020/12/05 09:32:51;;;;;;;6.67;5.27;;;6.30;90.30;;;;;;5033351;28;20451;-75
2020/12/05 09:35:18;;;;;;;6.27;5.07;;;6.40;90.20;;;;;;5033058;28;20454;-76
2020/12/05 09:37:45;;;;;;;6.47;5.40;;;6.40;90.60;;;;;;5033314;28;20430;-75
2020/12/05 09:40:13;;;;;;;4.80;4.20;;;6.60;91.00;;;;;;5032787;28;21011;-76
2020/12/05 09:42:40;;;;;;;6.23;4.23;;;6.60;90.20;;;;;;5032915;28;20422;-76
2020/12/05 09:45:08;;;;;;;7.77;4.50;;;6.60;89.40;;;;;;5033575;28;20433;-76
2020/12/05 09:47:35;;;;;;;4.10;3.50;;;6.70;89.10;;;;;;5036142;28;20987;-76
2020/12/05 09:50:05;;;;;;;4.63;4.20;;;6.70;88.70;;;;;;5036135;28;20435;-76
2020/12/05 09:52:32;;;;;;;4.37;3.97;;;6.80;88.40;;;;;;5037026;28;20434;-76
2020/12/05 09:54:58;;;;;;;4.43;3.30;;;6.80;88.10;;;;;;5037064;28;20461;-76
2020/12/05 09:57:25;;;;;;;4.17;3.77;;;6.90;87.60;;;;;;5036842;28;20469;-76
2020/12/05 09:59:51;;;;;;;4.53;4.00;;;7.00;87.40;;;;;;5036865;28;20462;-76
2020/12/05 10:02:17;;;;;;;4.20;3.40;;;7.10;87.20;;;;;;5036743;28;21047;-76
2020/12/05 10:04:43;;;;;;;3.00;2.70;;;7.10;86.40;;;;;;5036839;28;20427;-76
2020/12/05 10:07:10;;;;;;;4.10;3.40;;;7.20;86.00;;;;;;5036654;28;20462;-76
2020/12/05 10:09:36;;;;;;;3.63;3.07;;;7.20;84.70;;;;;;5036679;28;20427;-76
2020/12/05 10:12:03;;;;;;;4.33;3.20;;;7.20;84.30;;;;;;5036627;28;20443;-76
2020/12/05 10:14:30;;;;;;;3.90;3.23;;;7.30;84.50;;;;;;5036676;28;20438;-76
2020/12/05 10:16:56;;;;;;;3.50;3.20;;;7.40;84.60;;;;;;5036953;28;20458;-75
2020/12/05 10:19:22;;;;;;;2.93;2.63;;;7.50;84.10;;;;;;5036568;28;20482;-75
2020/12/05 10:21:49;;;;;;;3.50;3.20;;;7.60;83.70;;;;;;5036523;28;20438;-77
2020/12/05 10:24:17;;;;;;;2.93;2.63;;;7.70;82.90;;;;;;5036447;28;20529;-76
2020/12/05 10:26:47;;;;;;;3.00;2.33;;;7.70;82.50;;;;;;5036354;28;20473;-75
2020/12/05 10:29:13;;;;;;;4.37;2.80;;;7.90;82.20;;;;;;5036725;28;20466;-75
2020/12/05 10:31:43;;;;;;;6.10;2.50;;;8.00;81.30;;;;;;5036436;28;20469;-76
2020/12/05 10:34:10;;;;;;;2.87;2.13;;;8.10;80.80;;;;;;5037563;28;20416;-78
2020/12/05 10:36:36;;;;;;;3.63;2.67;;;8.10;79.70;;;;;;5038518;28;20474;-78
2020/12/05 10:39:03;;;;;;;4.40;2.50;;;8.20;78.80;;;;;;5038291;28;20482;-78
2020/12/05 10:41:30;;;;;;;3.50;2.40;;;8.20;78.20;;;;;;5040989;28;20936;-78
2020/12/05 10:43:56;;;;;;;2.93;2.13;;;8.30;76.90;;;;;;5036584;28;20815;-78
2020/12/05 10:46:22;;;;;;;4.50;1.57;;;8.30;76.90;;;;;;5036125;28;20968;-75
2020/12/05 10:48:48;;;;;;;4.90;1.40;;;8.40;76.10;;;;;;5036103;28;20455;-74
2020/12/05 10:51:14;;;;;;;2.43;1.87;;;8.50;74.30;;;;;;5036290;28;20798;-77
2020/12/05 10:53:41;;;;;;;2.47;2.27;;;8.60;72.90;;;;;;5036445;28;20425;-78
2020/12/05 10:56:07;;;;;;;2.10;1.80;;;8.70;72.30;;;;;;5035222;28;21002;-74
2020/12/05 10:58:34;;;;;;;342.10;23.90;;;8.80;73.60;;;;;;5035852;28;20553;-75
2020/12/05 11:01:00;;;;;;;5.53;1.90;;;8.90;74.90;;;;;;5035371;28;20478;-74
2020/12/05 11:03:27;;;;;;;3.80;1.27;;;9.00;72.00;;;;;;5035731;28;20815;-75
2020/12/05 11:05:53;;;;;;;2.17;1.00;;;9.20;71.00;;;;;;5035624;28;20478;-75
2020/12/05 11:08:19;;;;;;;1.80;0.90;;;9.40;70.00;;;;;;5035545;28;20437;-76
2020/12/05 11:10:45;;;;;;;1.10;0.90;;;9.70;67.10;;;;;;5035614;28;20426;-75
2020/12/05 11:13:11;;;;;;;1.40;1.10;;;10.00;64.70;;;;;;5035343;28;20897;-75
2020/12/05 11:15:39;;;;;;;2.87;1.50;;;10.30;62.50;;;;;;5035515;28;20836;-75
2020/12/05 11:18:06;;;;;;;1.80;1.37;;;10.40;60.30;;;;;;5035523;28;20423;-74
2020/12/05 11:20:32;;;;;;;2.07;1.07;;;10.60;59.50;;;;;;5035414;28;20485;-75
2020/12/05 11:22:58;;;;;;;5.10;1.00;;;10.80;58.50;;;;;;5035564;28;20430;-75
2020/12/05 11:25:25;;;;;;;3.50;1.17;;;11.00;58.10;;;;;;5035299;28;20422;-75
2020/12/05 11:27:51;;;;;;;2.63;1.20;;;11.10;57.50;;;;;;5035342;28;20443;-76
2020/12/05 11:30:17;;;;;;;2.40;1.03;;;11.40;57.70;;;;;;5035216;28;20450;-76
2020/12/05 11:32:44;;;;;;;5.23;1.30;;;11.60;56.30;;;;;;5034753;28;20979;-75
2020/12/05 11:35:10;;;;;;;2.47;1.30;;;11.80;55.00;;;;;;5035404;28;20458;-75
2020/12/05 11:37:36;;;;;;;4.07;1.33;;;12.00;54.40;;;;;;5034772;28;20472;-75
2020/12/05 11:40:03;;;;;;;2.77;1.20;;;12.20;53.80;;;;;;5035100;28;20477;-75
2020/12/05 11:42:32;;;;;;;2.10;1.17;;;12.50;53.40;;;;;;5035111;28;20438;-75
2020/12/05 11:44:59;;;;;;;2.13;1.10;;;12.80;52.80;;;;;;5035593;28;20513;-75
2020/12/05 11:47:25;;;;;;;1.90;1.43;;;13.00;51.80;;;;;;5034896;28;20486;-77
2020/12/05 11:49:52;;;;;;;1.20;0.90;;;13.10;50.50;;;;;;5034859;28;20553;-75
2020/12/05 11:52:18;;;;;;;1.93;1.37;;;13.20;50.00;;;;;;5034759;28;20439;-75
2020/12/05 11:54:44;;;;;;;1.50;1.17;;;13.40;49.70;;;;;;5034778;28;20484;-75
2020/12/05 11:57:10;;;;;;;1.57;1.00;;;13.50;49.10;;;;;;5035536;28;20470;-75
2020/12/05 11:59:39;;;;;;;1.87;0.93;;;13.70;49.50;;;;;;5035154;28;20481;-75
2020/12/05 12:02:05;;;;;;;1.13;1.03;;;13.80;48.20;;;;;;5034620;28;20830;-75
2020/12/05 12:04:32;;;;;;;1.27;0.73;;;13.90;48.00;;;;;;5034818;28;20443;-75
2020/12/05 12:06:59;;;;;;;1.43;0.97;;;14.00;47.70;;;;;;5034465;28;20458;-75
2020/12/05 12:09:25;;;;;;;1.27;1.03;;;14.20;48.30;;;;;;5033840;28;20853;-75
2020/12/05 12:11:51;;;;;;;1.23;1.07;;;14.30;47.30;;;;;;5034475;28;20442;-75
2020/12/05 12:14:17;;;;;;;2.03;1.00;;;14.40;46.30;;;;;;5034435;28;20438;-76
2020/12/05 12:16:46;;;;;;;1.33;1.00;;;14.40;45.60;;;;;;5034556;28;20459;-76
2020/12/05 12:19:12;;;;;;;1.67;1.20;;;14.50;46.20;;;;;;5034631;28;20492;-74
2020/12/05 12:21:38;;;;;;;2.87;0.93;;;14.60;46.40;;;;;;5033922;28;20769;-75
2020/12/05 12:24:05;;;;;;;4.00;0.93;;;14.70;45.30;;;;;;5034187;28;20438;-74
2020/12/05 12:26:31;;;;;;;1.87;0.67;;;14.90;45.10;;;;;;5033856;28;20994;-76
2020/12/05 12:28:58;;;;;;;2.07;1.00;;;14.50;45.50;;;;;;5034214;28;20434;-75
2020/12/05 12:31:24;;;;;;;2.07;1.03;;;14.60;45.60;;;;;;5034599;28;20481;-75
2020/12/05 12:33:51;;;;;;;4.70;1.13;;;14.70;45.20;;;;;;5034070;28;20513;-74
2020/12/05 12:36:17;;;;;;;5.27;1.00;;;14.80;44.40;;;;;;5033830;28;20474;-74
2020/12/05 12:38:44;;;;;;;1.20;1.10;;;14.90;44.10;;;;;;5033995;28;20458;-74
2020/12/05 12:41:14;;;;;;;1.50;0.90;;;14.90;43.50;;;;;;5033983;28;20466;-75
2020/12/05 12:43:40;;;;;;;1.30;0.80;;;14.80;43.60;;;;;;5033923;28;20422;-75
2020/12/05 12:46:07;;;;;;;1.67;0.90;;;14.80;43.60;;;;;;5033618;28;20466;-75
2020/12/05 12:48:40;;;;;;;1.33;0.83;;;14.90;43.30;;;;;;5033742;28;20469;-75
2020/12/05 12:51:07;;;;;;;1.30;0.70;;;15.10;43.70;;;;;;5033800;28;20423;-76
2020/12/05 12:53:34;;;;;;;2.93;1.00;;;15.10;42.70;;;;;;5034034;28;20427;-76
2020/12/05 12:56:00;;;;;;;1.30;1.17;;;15.00;42.40;;;;;;5033652;28;20526;-75
2020/12/05 12:58:34;;;;;;;1.53;0.80;;;15.00;42.90;;;;;;5033904;28;20526;-75